Latest Weather Observations for Omeo

IDV60801

Issued at 5:22 pm EST Tuesday 20 April 2021 (issued every 10 minutes, with the page automatically refreshed every 10 minutes)

About weather observations | Map of weather stations | Latest weather observations for VIC | Other Formats
Station Details ID: 083090 Name: OMEO Lat: -37.10 Lon: 147.60 Height: 689.8 m
Data from the previous 72 hours. | See also: Recent months at Omeo
Date/Time
EST
Temp
°C
App
Temp
°C
Dew
Point
°C
Rel
Hum
%
Delta-T
°C
Wind Press
QNH
hPa
Press
MSL
hPa
Rain since
9am
mm
Dir  Spd
km/h
Gust
km/h
Spd
kts
Gust
kts
20/05:00pm 13.5 8.7 2.7 48 5.0 NW 17 24 9 13 1008.5 1007.5 0.0
20/04:30pm 14.3 8.9 2.2 44 5.5 NNW 20 35 11 19 1008.5 1007.5 0.0
20/04:00pm 14.8 9.5 2.0 42 5.9 NNW 19 32 10 17 1008.3 1007.3 0.0
20/03:30pm 15.2 8.2 1.7 40 6.2 NNW 28 41 15 22 1008.4 1007.4 0.0
20/03:00pm 15.6 9.8 2.4 41 6.2 NNW 22 33 12 18 1008.8 1007.8 0.0
20/02:30pm 15.2 9.8 2.7 43 5.8 NNW 20 30 11 16 1009.2 1008.2 0.0
20/02:00pm 14.2 9.3 3.9 50 4.9 NNW 19 28 10 15 1009.5 1008.5 0.0
20/01:30pm 14.2 9.3 3.9 50 4.9 NNW 19 28 10 15 1009.6 1008.6 0.0
20/01:00pm 14.6 10.8 3.7 48 5.2 NW 13 22 7 12 1010.2 1009.3 0.0
20/12:30pm 13.7 9.2 4.3 53 4.5 NW 17 30 9 16 1011.0 1010.0 0.0
20/12:00pm 14.3 8.8 4.0 50 4.9 N 22 41 12 22 1011.2 1010.2 0.0
20/11:30am 13.9 8.2 2.8 47 5.1 NNW 22 44 12 24 1011.6 1010.7 0.0
20/11:00am 14.2 8.6 3.7 49 5.0 N 22 39 12 21 1012.3 1011.3 0.0
20/10:30am 14.0 8.2 4.6 53 4.5 N 24 43 13 23 1012.4 1011.4 0.0
20/10:00am 14.2 9.1 5.8 57 4.2 NNW 22 32 12 17 1012.6 1011.7 0.0
20/09:30am 12.2 6.9 5.1 62 3.4 N 22 35 12 19 1013.0 1012.1 0.0
20/09:00am 12.5 7.2 5.0 60 3.6 N 22 35 12 19 1013.0 1012.1 0.0
20/08:30am 12.1 7.2 4.1 58 3.7 N 19 35 10 19 1013.5 1012.5 0.0
20/08:00am 11.6 6.5 4.1 60 3.5 N 20 30 11 16 1013.3 1012.4 0.0
20/07:30am 10.5 6.3 3.8 63 3.1 NNW 15 24 8 13 1013.1 1012.2 0.0
20/07:00am 10.6 7.0 3.2 60 3.4 N 11 20 6 11 1013.1 1012.2 0.0
20/06:30am 8.5 4.9 3.1 69 2.4 NNW 11 19 6 10 1013.0 1012.1 0.0
20/06:00am 8.5 5.7 3.1 69 2.4 NNW 7 15 4 8 1013.1 1012.2 0.0
20/05:30am 7.0 4.3 2.9 75 1.8 NNW 6 13 3 7 1012.8 1011.9 0.0
20/05:00am 7.1 3.9 3.0 75 1.8 N 9 15 5 8 1013.0 1012.1 0.0
20/04:30am 6.9 3.0 3.2 77 1.6 N 13 17 7 9 1013.3 1012.4 0.0
20/04:00am 6.5 2.9 3.1 79 1.5 NNW 11 13 6 7 1013.6 1012.6 0.0
20/03:30am 6.9 3.4 3.5 79 1.5 N 11 15 6 8 1013.7 1012.7 0.0
20/03:00am 6.5 3.3 2.9 78 1.6 NNW 9 11 5 6 1014.0 1013.1 0.0
20/02:30am 6.8 4.2 3.4 79 1.5 N 6 9 3 5 1014.2 1013.3 0.0
20/02:00am 7.6 4.9 3.8 77 1.7 N 7 9 4 5 1014.6 1013.7 0.0
20/01:30am 7.8 5.2 4.4 79 1.5 NNW 7 11 4 6 1015.0 1014.0 0.0
20/01:00am 8.3 5.4 4.9 79 1.6 NNW 9 11 5 6 1015.3 1014.4 0.0
20/12:30am 8.4 5.6 5.0 79 1.6 NNW 9 11 5 6 1015.4 1014.5 0.0
20/12:00am 8.8 6.4 5.2 78 1.7 NNW 7 11 4 6 1015.6 1014.7 0.0
 
Date/Time
EST
Temp
°C
App
Temp
°C
Dew
Point
°C
Rel
Hum
%
Delta-T
°C
Wind Press
QNH
hPa
Press
MSL
hPa
Rain since
9am
mm
Dir  Spd
km/h
Gust
km/h
Spd
kts
Gust
kts
19/11:30pm 9.1 6.4 5.5 78 1.7 N 9 11 5 6 1015.7 1014.8 0.0
19/11:00pm 9.2 6.5 5.4 77 1.8 NNW 9 11 5 6 1015.9 1015.0 0.0
19/10:30pm 9.3 6.2 5.5 77 1.8 NNW 11 15 6 8 1016.0 1015.1 0.0
19/10:00pm 9.2 6.4 5.2 76 1.9 NNW 9 11 5 6 1016.2 1015.3 0.0
19/09:30pm 8.8 5.9 4.8 76 1.9 NNW 9 11 5 6 1016.3 1015.5 0.0
19/09:00pm 8.8 5.9 4.4 74 2.0 NNW 9 13 5 7 1016.3 1015.5 0.0
19/08:30pm 9.5 6.9 4.3 70 2.4 NNW 7 11 4 6 1016.4 1015.6 0.0
19/08:00pm 9.9 7.5 4.1 67 2.7 NNW 6 9 3 5 1016.4 1015.6 0.0
19/07:30pm 10.3 7.3 4.2 66 2.8 NNW 9 11 5 6 1016.7 1015.8 0.0
19/07:00pm 10.8 7.7 3.6 61 3.3 NNW 9 11 5 6 1016.7 1015.8 0.0
19/06:30pm 11.6 7.7 3.6 58 3.7 NW 13 17 7 9 1016.6 1015.7 0.0
19/06:00pm 11.5 8.1 4.0 60 3.5 NNW 11 13 6 7 1016.2 1015.3 0.0
19/05:30pm 12.9 8.5 4.8 58 3.9 N 17 22 9 12 1015.8 1014.9 0.0
19/05:00pm 13.5 9.2 5.4 58 3.9 N 17 24 9 13 1015.6 1014.7 0.0
19/04:30pm 13.9 10.5 5.8 58 4.0 N 13 19 7 10 1015.7 1014.8 0.0
19/04:00pm 13.7 9.0 5.3 57 4.1 N 19 30 10 16 1015.6 1014.7 0.0
19/03:30pm 15.6 10.8 5.5 51 5.0 N 20 28 11 15 1015.6 1014.7 0.0
19/03:00pm 15.6 10.0 5.5 51 5.0 N 24 37 13 20 1015.4 1014.5 0.0
19/02:30pm 16.1 10.6 5.7 50 5.2 N 24 37 13 20 1015.3 1014.4 0.0
19/02:00pm 16.8 11.3 6.0 49 5.4 N 24 35 13 19 1015.4 1014.5 0.0
19/01:30pm 17.3 12.9 6.5 49 5.5 N 19 30 10 16 1015.4 1014.5 0.0
19/01:00pm 17.0 12.6 6.5 50 5.4 N 19 28 10 15 1015.9 1015.0 0.0
19/12:30pm 16.2 12.1 6.1 51 5.1 NNE 17 28 9 15 1016.2 1015.3 0.0
19/12:00pm 15.9 11.9 6.6 54 4.7 NNE 17 24 9 13 1016.9 1016.0 0.0
19/11:30am 14.5 10.7 5.8 56 4.3 N 15 24 8 13 1017.4 1016.5 0.0
19/11:00am 14.0 10.0 6.6 61 3.7 N 17 26 9 14 1017.8 1017.0 0.0
19/10:30am 12.2 8.2 6.5 68 2.8 N 17 20 9 11 1018.1 1017.2 0.0
19/10:00am 10.2 6.2 6.5 78 1.8 N 17 24 9 13 1018.3 1017.4 0.0
19/09:30am 6.7 3.8 6.6 99 0.0 N 11 15 6 8 1018.7 1017.8 0.0
19/09:00am 5.0 1.8 4.9 99 0.0 N 11 17 6 9 1019.0 1018.2 0.0
19/08:30am 4.2 1.2 4.1 99 0.0 NNW 9 15 5 8 1019.1 1018.3 0.0
19/08:00am 3.6 0.9 3.5 99 0.0 NW 7 11 4 6 1019.1 1018.3 0.0
19/07:30am 3.5 0.4 3.4 99 0.0 NNW 9 17 5 9 1018.6 1017.7 0.0
19/07:00am 3.2 -0.4 3.1 99 0.0 NNW 11 17 6 9 1018.6 1017.7 0.0
19/06:30am 3.0 -0.6 2.9 99 0.0 N 11 17 6 9 1018.5 1017.6 0.0
19/06:00am 3.3 0.1 3.2 99 0.0 N 9 15 5 8 1018.4 1017.5 0.0
19/05:30am 3.3 -0.3 3.2 99 0.0 N 11 17 6 9 1018.5 1017.6 0.0
19/05:00am 3.5 0.4 3.4 99 0.0 N 9 13 5 7 1018.3 1017.4 0.0
19/04:30am 3.2 0.0 3.1 99 0.0 NNW 9 11 5 6 1018.3 1017.4 0.0
19/04:00am 3.0 -0.2 2.9 99 0.0 NNW 9 11 5 6 1018.5 1017.6 0.0
19/03:30am 2.4 -0.4 2.3 99 0.0 NNW 6 11 3 6 1018.6 1017.7 0.0
19/03:00am 2.2 -0.6 2.1 99 0.0 NW 6 9 3 5 1018.8 1018.0 0.0
19/02:30am 2.7 -0.2 2.6 99 0.0 NW 7 7 4 4 1019.1 1018.3 0.0
19/02:00am 2.2 0.5 1.9 98 0.1 CALM 0 0 0 0 1019.4 1018.6 0.0
19/01:30am 2.1 0.4 1.7 97 0.2 CALM 0 0 0 0 1019.8 1018.9 0.0
19/01:00am 2.3 0.6 1.9 97 0.2 CALM 0 0 0 0 1020.2 1019.4 0.0
19/12:30am 3.3 1.8 3.0 98 0.1 CALM 0 0 0 0 1020.2 1019.4 0.0
19/12:00am 3.6 2.1 3.0 96 0.3 CALM 0 0 0 0 1020.2 1019.4 0.0
 
Date/Time
EST
Temp
°C
App
Temp
°C
Dew
Point
°C
Rel
Hum
%
Delta-T
°C
Wind Press
QNH
hPa
Press
MSL
hPa
Rain since
9am
mm
Dir  Spd
km/h
Gust
km/h
Spd
kts
Gust
kts
18/11:30pm 4.3 2.9 3.7 96 0.3 CALM 0 0 0 0 1020.4 1019.6 0.0
18/11:00pm 4.3 2.9 3.4 94 0.4 CALM 0 0 0 0 1020.6 1019.8 0.0
18/10:30pm 4.7 3.3 3.7 93 0.4 CALM 0 0 0 0 1020.8 1020.0 0.0
18/10:00pm 5.1 3.7 3.8 91 0.6 CALM 0 0 0 0 1020.8 1020.0 0.0
18/09:30pm 5.8 4.5 4.1 89 0.8 CALM 0 0 0 0 1020.9 1020.1 0.0
18/09:00pm 6.5 4.5 4.2 85 1.0 SSE 4 9 2 5 1020.9 1020.1 0.0
18/08:30pm 7.8 5.5 4.7 81 1.4 SSW 6 9 3 5 1020.8 1020.0 0.0
18/08:00pm 8.9 6.6 4.9 76 1.9 SW 6 9 3 5 1020.8 1020.0 0.0
18/07:30pm 10.3 7.7 6.1 75 2.0 SSW 9 15 5 8 1020.8 1020.0 0.0
18/07:00pm 10.6 8.0 6.0 73 2.2 SSW 9 11 5 6 1020.7 1019.9 0.0
18/06:30pm 11.0 9.6 5.7 70 2.6 WSW 2 9 1 5 1020.4 1019.6 0.0
18/06:00pm 11.6 9.7 5.0 64 3.1 SSW 4 7 2 4 1020.0 1019.1 0.0
18/05:30pm 13.4 10.6 5.3 58 3.9 SE 9 15 5 8 1019.5 1018.7 0.0
18/05:00pm 15.8 13.0 5.1 49 5.3 SE 9 17 5 9 1019.3 1018.5 0.0
18/04:30pm 16.7 14.3 5.3 47 5.7 ENE 7 13 4 7 1019.3 1018.5 0.0
18/04:00pm 17.5 15.5 6.1 47 5.8 NW 6 15 3 8 1019.2 1018.4 0.0
18/03:30pm 18.2 15.8 4.4 40 6.8 NNW 6 11 3 6 1019.3 1018.5 0.0
18/03:00pm 18.3 15.9 5.2 42 6.6 NNW 7 11 4 6 1019.3 1018.5 0.0
18/02:30pm 17.8 16.2 4.4 41 6.6 NE 2 11 1 6 1019.5 1018.7 0.0
18/02:00pm 17.4 15.0 4.4 42 6.4 NE 6 11 3 6 1019.8 1018.9 0.0
18/01:30pm 16.9 14.4 4.6 44 6.0 N 7 15 4 8 1020.1 1019.3 0.0
18/01:00pm 16.6 13.9 5.6 48 5.5 N 9 17 5 9 1020.6 1019.8 0.0
18/12:30pm 15.5 12.7 5.1 50 5.1 NNW 9 17 5 9 1021.2 1020.3 0.0
18/12:00pm 15.6 12.9 5.5 51 5.0 N 9 13 5 7 1021.7 1020.9 0.0
18/11:30am 13.9 10.6 4.8 54 4.4 NNW 11 17 6 9 1022.0 1021.2 0.0
18/11:00am 13.6 10.4 5.3 57 4.0 N 11 17 6 9 1022.4 1021.6 0.0
18/10:30am 12.0 9.1 4.5 60 3.5 NNE 9 13 5 7 1022.6 1021.9 0.0
18/10:00am 10.6 7.6 4.3 65 2.9 N 9 15 5 8 1023.0 1022.2 0.0
18/09:30am 9.0 5.9 3.8 70 2.4 N 9 11 5 6 1023.2 1022.4 0.0
18/09:00am 6.9 3.7 3.2 77 1.6 N 9 13 5 7 1023.6 1022.8 0.0
18/08:30am 5.4 2.6 2.9 84 1.1 NNW 7 11 4 6 1023.7 1022.9 0.0
18/08:00am 3.9 2.3 2.6 91 0.5 CALM 0 6 0 3 1023.7 1022.9 0.0
18/07:30am 1.5 -0.3 1.2 98 0.1 CALM 0 0 0 0 1023.5 1022.7 0.0
18/07:00am 1.2 -0.7 0.8 97 0.2 CALM 0 0 0 0 1023.3 1022.5 0.0
18/06:30am 1.3 -0.5 0.9 97 0.2 CALM 0 0 0 0 1023.2 1022.4 0.0
18/06:00am 1.8 0.0 1.4 97 0.2 CALM 0 0 0 0 1023.3 1022.5 0.0
18/05:30am 1.9 0.1 1.5 97 0.2 CALM 0 0 0 0 1023.3 1022.5 0.0
18/05:00am 1.9 0.2 1.6 98 0.1 CALM 0 0 0 0 1023.0 1022.2 0.0
18/04:30am 1.4 -0.4 1.1 98 0.1 CALM 0 0 0 0 1023.1 1022.3 0.0
18/04:00am 1.3 -0.5 0.9 97 0.2 CALM 0 0 0 0 1022.9 1022.1 0.0
18/03:30am 1.2 -0.7 0.8 97 0.2 CALM 0 0 0 0 1022.9 1022.1 0.0
18/03:00am 0.7 -1.3 0.0 95 0.3 CALM 0 0 0 0 1022.9 1022.1 0.0
18/02:30am 1.2 -1.9 0.3 94 0.3 SE 6 7 3 4 1023.2 1022.4 0.0
18/02:00am 2.1 0.3 1.1 93 0.4 CALM 0 6 0 3 1023.5 1022.7 0.0
18/01:30am 2.7 -0.2 1.5 92 0.5 SE 6 7 3 4 1023.8 1023.0 0.0
18/01:00am 3.2 1.0 1.1 86 0.8 SSE 2 6 1 3 1024.1 1023.4 0.0
18/12:30am 4.9 1.9 2.3 83 1.1 SSE 7 9 4 5 1024.1 1023.4 0.0
18/12:00am 6.9 5.0 2.8 75 1.8 SSE 2 7 1 4 1024.3 1023.5 0.0
 
Date/Time
EST
Temp
°C
App
Temp
°C
Dew
Point
°C
Rel
Hum
%
Delta-T
°C
Wind Press
QNH
hPa
Press
MSL
hPa
Rain since
9am
mm
Dir  Spd
km/h
Gust
km/h
Spd
kts
Gust
kts
17/11:30pm 8.6 7.3 4.2 74 2.0 CALM 0 7 0 4 1024.4 1023.6 0.0
17/11:00pm 8.7 7.1 4.3 74 2.0 SSE 2 9 1 5 1024.5 1023.7 0.0
17/10:30pm 8.3 7.1 4.5 77 1.7 CALM 0 0 0 0 1024.6 1023.8 0.0
17/10:00pm 8.2 7.0 4.6 78 1.6 CALM 0 0 0 0 1024.8 1024.0 0.0
17/09:30pm 8.0 6.8 4.6 79 1.6 CALM 0 0 0 0 1024.8 1024.0 0.0
17/09:00pm 7.6 6.4 4.6 81 1.4 CALM 0 0 0 0 1024.8 1024.0 0.0
17/08:30pm 7.4 6.1 4.2 80 1.4 CALM 0 0 0 0 1024.8 1024.0 0.0
17/08:00pm 7.6 5.1 3.8 77 1.7 SSE 6 11 3 6 1024.7 1023.9 0.0
17/07:30pm 8.4 5.0 4.0 74 2.0 SSE 11 20 6 11 1024.6 1023.8 0.0
17/07:00pm 8.8 5.8 4.0 72 2.2 SSE 9 15 5 8 1024.4 1023.6 0.0
17/06:30pm 8.9 5.5 3.9 71 2.3 SE 11 15 6 8 1024.1 1023.4 0.0
17/06:00pm 9.2 5.5 4.2 71 2.3 SSE 13 19 7 10 1023.8 1023.0 0.0
17/05:30pm 9.6 6.3 4.4 70 2.4 SSE 11 20 6 11 1023.4 1022.6 0.0

Other formats

Comma delimited format used in spreadsheet applications
http://www.bom.gov.au/fwo/IDV60801/IDV60801.94908.axf

JavaScript Object Notation format (JSON) in row-major order
http://www.bom.gov.au/fwo/IDV60801/IDV60801.94908.json

Data quality

Most of these data are generated automatically and are frequently updated. Quality checks on data are not normally performed. It is possible for incorrect values to appear. Refer to information at About Latest Weather Observations and please check the disclaimer before using these data.